Time;durP1;ratioP1;P1;durP2;ratioP2;P2;SDS_P1;SDS_P2;PMS_P1;PMS_P2;Temp;Humidity;BMP_temperature;BMP_pressure;BME280_temperature;BME280_humidity;BME280_pressure;Samples;Min_cycle;Max_cycle;Signal;HPM_P1;HPM_P2
2022/12/02 00:01:27;;;;;;;13.30;11.13;;;6.60;99.90;;;;;;6226450;28;20495;-64
2022/12/02 00:04:30;;;;;;;13.23;10.77;;;6.50;99.90;;;;;;6229282;28;20481;-65
2022/12/02 00:07:33;;;;;;;12.40;11.10;;;6.50;99.90;;;;;;6249617;28;20467;-64
2022/12/02 00:10:39;;;;;;;14.57;12.97;;;6.50;99.90;;;;;;6250151;28;20578;-66
2022/12/02 00:13:44;;;;;;;13.17;11.70;;;6.40;99.90;;;;;;6250035;28;20468;-66
2022/12/02 00:16:48;;;;;;;15.03;12.63;;;6.50;99.90;;;;;;6249430;28;20493;-66
2022/12/02 00:19:52;;;;;;;14.50;11.83;;;6.40;99.90;;;;;;6249888;28;20605;-66
2022/12/02 00:22:55;;;;;;;16.80;13.27;;;6.40;99.90;;;;;;6260175;28;20481;-65
2022/12/02 00:26:00;;;;;;;19.00;16.53;;;6.50;99.90;;;;;;6280122;28;20461;-66
2022/12/02 00:29:03;;;;;;;24.47;17.50;;;6.40;99.90;;;;;;6254149;28;20947;-65
2022/12/02 00:32:06;;;;;;;24.23;18.40;;;6.40;99.90;;;;;;6255644;28;20454;-65
2022/12/02 00:35:10;;;;;;;22.77;19.23;;;6.30;99.90;;;;;;6254121;28;20529;-64
2022/12/02 00:38:13;;;;;;;22.83;19.23;;;6.20;99.90;;;;;;6254270;28;20435;-64
2022/12/02 00:41:18;;;;;;;26.37;22.10;;;6.20;99.90;;;;;;6254188;28;20957;-66
2022/12/02 00:47:41;;;;;;;26.67;20.20;;;6.20;99.90;;;;;;6255313;28;20467;-66
2022/12/02 00:50:45;;;;;;;23.97;18.90;;;6.20;99.90;;;;;;6257623;28;20538;-66
2022/12/02 00:53:48;;;;;;;24.20;18.80;;;6.30;99.90;;;;;;6259820;28;20482;-65
2022/12/02 00:56:52;;;;;;;21.87;19.50;;;6.30;99.90;;;;;;6253544;28;20467;-64
2022/12/02 00:59:56;;;;;;;23.07;20.27;;;6.30;99.90;;;;;;6263592;28;20467;-67
2022/12/02 01:02:59;;;;;;;23.70;20.97;;;6.30;99.90;;;;;;6253910;28;20471;-66
2022/12/02 01:06:02;;;;;;;26.07;20.50;;;6.30;99.90;;;;;;6254432;28;20479;-64
2022/12/02 01:09:05;;;;;;;27.03;22.07;;;6.20;99.90;;;;;;6253601;28;20494;-64
2022/12/02 01:12:09;;;;;;;31.83;21.70;;;6.20;99.90;;;;;;6255883;28;20490;-66
2022/12/02 01:15:13;;;;;;;26.17;23.37;;;6.20;99.90;;;;;;6259852;28;20479;-64
2022/12/02 01:18:16;;;;;;;29.73;22.37;;;6.10;99.90;;;;;;6254078;28;20501;-66
2022/12/02 01:21:20;;;;;;;26.17;20.60;;;6.20;99.90;;;;;;6237315;28;20484;-67
2022/12/02 01:24:23;;;;;;;27.93;22.40;;;6.20;99.90;;;;;;6269214;28;20969;-66
2022/12/02 01:27:28;;;;;;;29.03;23.90;;;6.20;99.90;;;;;;6280906;28;20950;-65
2022/12/02 01:30:31;;;;;;;30.70;22.97;;;6.10;99.90;;;;;;6245808;28;20487;-68
2022/12/02 01:33:34;;;;;;;26.87;20.77;;;6.20;99.90;;;;;;6254240;28;20487;-66
2022/12/02 01:36:37;;;;;;;29.77;23.33;;;6.10;99.90;;;;;;6253229;28;20486;-67
2022/12/02 01:39:40;;;;;;;29.07;21.73;;;6.20;99.90;;;;;;6252875;28;20540;-66
2022/12/02 01:42:46;;;;;;;28.17;22.50;;;6.10;99.90;;;;;;6253028;28;20471;-66
2022/12/02 01:45:50;;;;;;;25.83;19.77;;;6.10;99.90;;;;;;6253364;28;20478;-67
2022/12/02 01:48:53;;;;;;;25.17;20.87;;;6.10;99.90;;;;;;6253305;28;20475;-66
2022/12/02 01:51:56;;;;;;;23.43;20.90;;;6.10;99.90;;;;;;6253260;28;20471;-65
2022/12/02 01:54:59;;;;;;;23.60;19.97;;;6.20;99.90;;;;;;6271456;28;20973;-65
2022/12/02 01:58:04;;;;;;;30.60;22.77;;;6.20;99.90;;;;;;6276178;28;20505;-65
2022/12/02 02:01:22;;;;;;;27.13;19.90;;;6.20;99.90;;;;;;6275671;28;20934;-65
2022/12/02 02:04:26;;;;;;;30.03;22.10;;;6.20;99.90;;;;;;6274769;28;20478;-67
2022/12/02 02:07:30;;;;;;;26.77;21.03;;;6.20;99.90;;;;;;6252459;28;20554;-65
2022/12/02 02:10:36;;;;;;;27.23;20.37;;;6.20;99.90;;;;;;6250026;28;20475;-68
2022/12/02 02:13:41;;;;;;;25.90;20.33;;;6.30;99.90;;;;;;6244133;28;20468;-68
2022/12/02 02:16:44;;;;;;;26.00;20.33;;;6.30;99.90;;;;;;6238953;28;20484;-68
2022/12/02 02:19:48;;;;;;;22.27;18.80;;;6.20;99.90;;;;;;6238668;28;20815;-68
2022/12/02 02:22:57;;;;;;;26.40;20.50;;;6.20;99.90;;;;;;6244408;28;20471;-67
2022/12/02 02:26:02;;;;;;;24.37;21.10;;;6.20;99.90;;;;;;6247248;28;20483;-67
2022/12/02 02:29:06;;;;;;;24.63;19.33;;;6.20;99.90;;;;;;6247226;28;20568;-67
2022/12/02 02:32:09;;;;;;;23.53;19.73;;;6.20;99.90;;;;;;6224758;28;20893;-67
2022/12/02 02:35:13;;;;;;;26.67;20.83;;;6.20;99.90;;;;;;6239711;28;20443;-67
2022/12/02 02:38:19;;;;;;;25.70;17.97;;;6.20;99.90;;;;;;6238505;28;20486;-67
2022/12/02 02:41:23;;;;;;;30.90;20.50;;;6.20;99.90;;;;;;6239201;28;20484;-67
2022/12/02 02:44:28;;;;;;;23.03;19.70;;;6.20;99.90;;;;;;6239414;28;20463;-67
2022/12/02 02:47:32;;;;;;;25.30;19.90;;;6.20;99.90;;;;;;6239764;28;20460;-67
2022/12/02 02:50:38;;;;;;;28.60;22.23;;;6.20;99.90;;;;;;6238106;28;20529;-67
2022/12/02 02:53:43;;;;;;;22.97;20.33;;;6.20;99.90;;;;;;6235700;28;20486;-67
2022/12/02 02:56:47;;;;;;;26.87;20.47;;;6.20;99.90;;;;;;6249548;28;20467;-67
2022/12/02 02:59:54;;;;;;;28.73;21.73;;;6.20;99.90;;;;;;6251864;28;20494;-66
2022/12/02 03:02:57;;;;;;;26.23;20.40;;;6.20;99.90;;;;;;6251312;28;20474;-67
2022/12/02 03:06:03;;;;;;;24.47;18.53;;;6.20;99.90;;;;;;6250734;28;20467;-67
2022/12/02 03:09:11;;;;;;;26.60;19.63;;;6.20;99.90;;;;;;6251084;28;20494;-66
2022/12/02 03:12:16;;;;;;;25.17;18.90;;;6.20;99.90;;;;;;6250333;28;20471;-67
2022/12/02 03:15:23;;;;;;;22.80;18.57;;;6.20;99.90;;;;;;6250887;28;20479;-67
2022/12/02 03:18:27;;;;;;;24.77;18.30;;;6.20;99.90;;;;;;6250581;28;20487;-67
2022/12/02 03:21:32;;;;;;;22.07;19.03;;;6.20;99.90;;;;;;6251934;28;20467;-67
2022/12/02 03:24:36;;;;;;;25.03;18.53;;;6.20;99.90;;;;;;6272603;28;20474;-67
2022/12/02 03:27:41;;;;;;;23.90;19.33;;;6.20;99.90;;;;;;6275305;28;20793;-66
2022/12/02 03:30:44;;;;;;;22.63;19.10;;;6.20;99.90;;;;;;6275073;28;20536;-66
2022/12/02 03:33:48;;;;;;;26.20;20.07;;;6.20;99.90;;;;;;6274666;28;20477;-67
2022/12/02 03:36:52;;;;;;;23.40;18.57;;;6.20;99.90;;;;;;6265741;28;20482;-67
2022/12/02 03:39:55;;;;;;;27.63;20.87;;;6.10;99.90;;;;;;6274500;28;20493;-67
2022/12/02 03:43:00;;;;;;;24.43;19.67;;;6.00;99.90;;;;;;6274383;28;20481;-67
2022/12/02 03:46:05;;;;;;;24.33;19.63;;;5.90;99.90;;;;;;6274414;28;20473;-67
2022/12/02 03:49:09;;;;;;;24.00;20.60;;;5.90;99.90;;;;;;6273945;28;21017;-66
2022/12/02 03:52:12;;;;;;;23.90;18.43;;;5.90;99.90;;;;;;6274375;28;20536;-67
2022/12/02 03:55:15;;;;;;;21.70;18.47;;;6.00;99.90;;;;;;6261693;28;20550;-67
2022/12/02 03:58:20;;;;;;;25.57;19.47;;;6.00;99.90;;;;;;6248904;28;20497;-67
2022/12/02 04:01:24;;;;;;;23.97;19.37;;;6.00;99.90;;;;;;6249466;28;20962;-67
2022/12/02 04:04:27;;;;;;;22.30;19.80;;;6.00;99.90;;;;;;6249740;28;20471;-67
2022/12/02 04:07:30;;;;;;;26.07;19.47;;;6.00;99.90;;;;;;6249669;28;20475;-67
2022/12/02 04:10:33;;;;;;;25.80;18.40;;;5.90;99.90;;;;;;6249438;28;20494;-67
2022/12/02 04:13:38;;;;;;;23.00;17.37;;;5.90;99.90;;;;;;6249364;28;20903;-67
2022/12/02 04:16:41;;;;;;;22.73;17.90;;;5.90;99.90;;;;;;6249503;28;20490;-67
2022/12/02 04:19:44;;;;;;;22.87;19.07;;;5.80;99.90;;;;;;6249423;28;20474;-67
2022/12/02 04:22:47;;;;;;;22.70;19.83;;;5.80;99.90;;;;;;6256354;28;20520;-67
2022/12/02 04:25:50;;;;;;;20.50;17.43;;;5.70;99.90;;;;;;6256813;28;20479;-67
2022/12/02 04:28:54;;;;;;;26.30;19.60;;;5.70;99.90;;;;;;6248995;28;20471;-67
2022/12/02 04:31:58;;;;;;;24.53;17.60;;;5.80;99.90;;;;;;6249289;28;20479;-67
2022/12/02 04:35:01;;;;;;;21.83;17.87;;;5.70;99.90;;;;;;6249410;28;20482;-67
2022/12/02 04:38:04;;;;;;;22.80;18.20;;;5.70;99.90;;;;;;6249513;28;20487;-67
2022/12/02 04:41:14;;;;;;;29.57;19.20;;;5.70;99.90;;;;;;6248755;28;20907;-66
2022/12/02 04:44:18;;;;;;;24.50;18.67;;;5.70;99.90;;;;;;6248845;28;20818;-67
2022/12/02 04:47:21;;;;;;;24.47;19.77;;;5.70;99.90;;;;;;6248965;28;20440;-67
2022/12/02 04:50:24;;;;;;;24.83;18.70;;;5.70;99.90;;;;;;6248476;28;20463;-67
2022/12/02 04:53:27;;;;;;;22.97;17.57;;;5.70;99.90;;;;;;6249446;28;20475;-67
2022/12/02 04:56:30;;;;;;;22.53;17.23;;;5.80;99.90;;;;;;6248497;28;20467;-67
2022/12/02 04:59:35;;;;;;;26.23;18.80;;;5.80;99.90;;;;;;6248759;28;20806;-67
2022/12/02 05:02:38;;;;;;;23.77;17.67;;;5.80;99.90;;;;;;6249093;28;20478;-67
2022/12/02 05:05:41;;;;;;;23.30;16.90;;;5.80;99.90;;;;;;6249063;28;20477;-67
2022/12/02 05:08:44;;;;;;;22.93;18.83;;;5.90;99.90;;;;;;6250995;28;20528;-66
2022/12/02 05:11:47;;;;;;;26.63;22.67;;;5.90;99.90;;;;;;6253685;28;20475;-67
2022/12/02 05:14:52;;;;;;;21.40;16.90;;;5.90;99.90;;;;;;6253616;28;20490;-67
2022/12/02 05:17:56;;;;;;;24.70;19.20;;;5.90;99.90;;;;;;6253882;28;20609;-68
2022/12/02 05:20:59;;;;;;;25.20;17.63;;;5.90;99.90;;;;;;6253062;28;20475;-67
2022/12/02 05:24:02;;;;;;;23.53;17.63;;;5.90;99.90;;;;;;6270365;28;20474;-67
2022/12/02 05:27:05;;;;;;;25.03;18.73;;;5.90;99.90;;;;;;6279425;28;20466;-67
2022/12/02 05:30:12;;;;;;;26.73;19.10;;;5.90;99.90;;;;;;6278687;28;20507;-66
2022/12/02 05:33:15;;;;;;;24.47;20.50;;;5.90;99.90;;;;;;6278892;28;20466;-67
2022/12/02 05:36:18;;;;;;;22.20;18.47;;;5.90;99.90;;;;;;6278735;28;20929;-67
2022/12/02 05:39:22;;;;;;;22.03;18.60;;;5.80;99.90;;;;;;6278462;28;20477;-67
2022/12/02 05:42:25;;;;;;;23.60;17.70;;;5.80;99.90;;;;;;6279153;28;20462;-67
2022/12/02 05:45:29;;;;;;;23.60;17.50;;;5.80;99.90;;;;;;6279099;28;20470;-67
2022/12/02 05:48:34;;;;;;;23.37;18.10;;;5.70;99.90;;;;;;6278134;28;20473;-67
2022/12/02 05:51:37;;;;;;;27.93;20.70;;;5.70;99.90;;;;;;6278384;28;20471;-67
2022/12/02 05:54:41;;;;;;;24.17;19.00;;;5.70;99.90;;;;;;6270042;28;20475;-67
2022/12/02 05:57:44;;;;;;;28.30;19.90;;;5.60;99.90;;;;;;6252822;28;20475;-67
2022/12/02 06:00:55;;;;;;;25.57;18.37;;;5.50;99.90;;;;;;6253357;28;20479;-67
2022/12/02 06:03:59;;;;;;;25.97;19.30;;;5.50;99.90;;;;;;6252678;28;20475;-67
2022/12/02 06:07:09;;;;;;;24.27;18.83;;;5.40;99.90;;;;;;6252638;28;20482;-67
2022/12/02 06:10:21;;;;;;;24.03;18.60;;;5.30;99.90;;;;;;6252267;28;20479;-67
2022/12/02 06:13:26;;;;;;;23.70;19.13;;;5.40;99.90;;;;;;6252512;28;20472;-68
2022/12/02 06:16:31;;;;;;;27.17;22.10;;;5.30;99.90;;;;;;6252083;28;20471;-68
2022/12/02 06:19:41;;;;;;;24.03;18.27;;;5.20;99.90;;;;;;6251589;28;20561;-67
2022/12/02 06:22:45;;;;;;;28.30;19.27;;;5.20;99.90;;;;;;6258682;28;20489;-68
2022/12/02 06:25:50;;;;;;;23.93;18.97;;;5.10;99.90;;;;;;6276930;28;20470;-68
2022/12/02 06:28:58;;;;;;;26.70;18.73;;;5.10;99.90;;;;;;6276397;28;20474;-67
2022/12/02 06:32:04;;;;;;;25.50;17.90;;;5.10;99.90;;;;;;6276897;28;20478;-67
2022/12/02 06:35:22;;;;;;;21.77;16.40;;;5.00;99.90;;;;;;6276462;28;20903;-68
2022/12/02 06:38:30;;;;;;;17.23;15.00;;;5.00;99.90;;;;;;6276426;28;20470;-68
2022/12/02 06:41:36;;;;;;;16.90;14.67;;;5.00;99.90;;;;;;6276225;28;20828;-67
2022/12/02 06:48:23;;;;;;;28.50;22.10;;;4.80;99.90;;;;;;6267187;28;20467;-67
2022/12/02 06:51:26;;;;;;;31.40;22.57;;;4.60;99.90;;;;;;6275571;28;20470;-67
2022/12/02 06:54:31;;;;;;;33.23;23.40;;;4.50;99.90;;;;;;6276073;28;20528;-68
2022/12/02 06:57:34;;;;;;;44.53;27.97;;;4.60;99.90;;;;;;6252723;28;20542;-67
2022/12/02 07:00:38;;;;;;;34.47;26.30;;;4.50;99.90;;;;;;6250963;28;20483;-67
2022/12/02 07:03:47;;;;;;;39.67;26.40;;;4.60;99.90;;;;;;6251256;28;20795;-67
2022/12/02 07:06:51;;;;;;;38.53;25.33;;;4.60;99.90;;;;;;6251133;28;20472;-68
2022/12/02 07:09:56;;;;;;;34.90;24.70;;;4.60;99.90;;;;;;6251239;28;20549;-67
2022/12/02 07:13:03;;;;;;;41.73;26.93;;;4.60;99.90;;;;;;6250880;28;20474;-68
2022/12/02 07:16:28;;;;;;;40.27;26.63;;;4.60;99.90;;;;;;6250909;28;20874;-67
2022/12/02 07:19:38;;;;;;;44.53;27.50;;;4.50;99.90;;;;;;6250348;28;20617;-67
2022/12/02 07:22:46;;;;;;;36.23;24.63;;;4.50;99.90;;;;;;6256207;28;20482;-68
2022/12/02 07:25:51;;;;;;;37.30;26.10;;;4.60;99.90;;;;;;6275001;28;20471;-68
2022/12/02 07:28:59;;;;;;;40.10;25.67;;;4.50;99.90;;;;;;6275916;28;20481;-67
2022/12/02 07:32:18;;;;;;;37.40;25.90;;;4.60;99.90;;;;;;6275749;28;20872;-67
2022/12/02 07:35:22;;;;;;;32.63;23.80;;;4.70;99.90;;;;;;6275590;28;20886;-67
2022/12/02 07:38:25;;;;;;;33.20;24.80;;;4.60;99.90;;;;;;6279316;28;20941;-67
2022/12/02 07:41:49;;;;;;;37.93;25.30;;;4.70;99.90;;;;;;6275876;28;20494;-67
2022/12/02 07:44:52;;;;;;;37.77;24.33;;;4.80;99.90;;;;;;6275487;28;20524;-67
2022/12/02 07:47:55;;;;;;;37.60;26.53;;;4.70;99.90;;;;;;6276185;28;20808;-67
2022/12/02 07:51:00;;;;;;;37.20;25.40;;;4.70;99.90;;;;;;6271355;28;20474;-67
2022/12/02 07:54:03;;;;;;;31.73;24.63;;;4.80;99.90;;;;;;6275679;28;20466;-67
2022/12/02 07:57:07;;;;;;;39.87;27.30;;;4.90;99.90;;;;;;6255561;28;20478;-67
2022/12/02 08:00:11;;;;;;;34.97;24.23;;;5.00;99.90;;;;;;6250004;28;20529;-67
2022/12/02 08:03:15;;;;;;;31.10;22.30;;;5.00;99.90;;;;;;6250959;28;21005;-66
2022/12/02 08:06:19;;;;;;;36.70;24.87;;;5.00;99.90;;;;;;6250983;28;20810;-67
2022/12/02 08:09:23;;;;;;;37.30;25.67;;;5.00;99.90;;;;;;6250265;28;20474;-66
2022/12/02 08:12:26;;;;;;;35.53;24.23;;;5.00;99.90;;;;;;6250371;28;20486;-67
2022/12/02 08:15:29;;;;;;;31.67;24.10;;;5.00;99.90;;;;;;6250276;28;20598;-68
2022/12/02 08:18:32;;;;;;;37.13;26.57;;;5.10;99.90;;;;;;6250393;28;20956;-67
2022/12/02 08:21:39;;;;;;;34.93;23.70;;;5.20;99.90;;;;;;6249812;28;20489;-68
2022/12/02 08:24:42;;;;;;;41.10;26.27;;;5.30;99.90;;;;;;6272658;28;20486;-67
2022/12/02 08:27:45;;;;;;;34.97;22.80;;;5.30;99.90;;;;;;6275063;28;20474;-67
2022/12/02 08:30:49;;;;;;;39.53;23.67;;;5.30;99.90;;;;;;6274471;28;20474;-67
2022/12/02 08:33:53;;;;;;;34.57;25.40;;;5.40;99.90;;;;;;6275014;28;20466;-67
2022/12/02 08:36:57;;;;;;;34.97;23.90;;;5.40;99.90;;;;;;6274389;28;20501;-68
2022/12/02 08:40:00;;;;;;;34.13;24.43;;;5.30;99.90;;;;;;6275632;28;20494;-67
2022/12/02 08:43:04;;;;;;;37.17;24.80;;;5.30;99.90;;;;;;6276198;28;20956;-67
2022/12/02 08:46:07;;;;;;;37.87;26.13;;;5.30;99.90;;;;;;6280461;28;20497;-67
2022/12/02 08:49:11;;;;;;;33.60;24.83;;;5.30;99.90;;;;;;6279517;28;20968;-67
2022/12/02 08:52:15;;;;;;;39.10;25.70;;;5.40;99.90;;;;;;6279125;28;20493;-67
2022/12/02 08:55:19;;;;;;;33.83;24.10;;;5.50;99.90;;;;;;6274055;28;20478;-67
2022/12/02 08:58:22;;;;;;;37.43;25.97;;;5.60;99.90;;;;;;6240413;28;20483;-67
2022/12/02 09:01:25;;;;;;;37.07;26.33;;;5.50;99.90;;;;;;6253726;28;20479;-67
2022/12/02 09:04:28;;;;;;;38.50;27.00;;;5.60;99.90;;;;;;6252307;28;20641;-67
2022/12/02 09:07:33;;;;;;;39.03;27.20;;;5.60;99.90;;;;;;6254486;28;20481;-66
2022/12/02 09:10:36;;;;;;;39.20;24.17;;;5.60;99.90;;;;;;6254158;28;20475;-68
2022/12/02 09:13:39;;;;;;;43.90;27.30;;;5.70;99.90;;;;;;6255119;28;20806;-66
2022/12/02 09:16:43;;;;;;;40.93;27.00;;;5.70;99.90;;;;;;6253939;28;20995;-63
2022/12/02 09:19:46;;;;;;;38.77;26.77;;;5.70;99.90;;;;;;6252925;28;20487;-63
2022/12/02 09:22:50;;;;;;;39.67;25.40;;;5.70;99.90;;;;;;6260681;28;20524;-63
2022/12/02 09:25:53;;;;;;;43.17;27.60;;;5.60;99.90;;;;;;6260977;28;20467;-63
2022/12/02 09:28:56;;;;;;;47.30;29.90;;;5.60;99.90;;;;;;6252084;28;20934;-62
2022/12/02 09:32:00;;;;;;;44.43;28.57;;;5.60;99.90;;;;;;6252607;28;20475;-63
2022/12/02 09:35:04;;;;;;;43.27;28.23;;;5.60;99.90;;;;;;6252337;28;20963;-63
2022/12/02 09:38:09;;;;;;;40.50;27.90;;;5.40;99.90;;;;;;6252194;28;20451;-64
2022/12/02 09:41:12;;;;;;;43.77;27.37;;;5.40;99.90;;;;;;6252488;28;20500;-63
2022/12/02 09:44:16;;;;;;;40.80;26.20;;;5.50;99.90;;;;;;6252847;28;20562;-63
2022/12/02 09:47:21;;;;;;;42.10;28.03;;;5.40;99.90;;;;;;6252554;28;20443;-63
2022/12/02 09:50:25;;;;;;;41.90;26.77;;;5.30;99.90;;;;;;6252927;28;20459;-65
2022/12/02 09:53:33;;;;;;;37.50;25.50;;;5.20;99.90;;;;;;6251949;28;20463;-63
2022/12/02 09:56:36;;;;;;;42.67;28.10;;;5.30;99.90;;;;;;6266709;28;20473;-66
2022/12/02 09:59:40;;;;;;;41.07;29.07;;;5.30;99.90;;;;;;6276863;28;20789;-64
2022/12/02 10:02:45;;;;;;;38.97;26.37;;;5.40;99.90;;;;;;6276049;28;20970;-63
2022/12/02 10:05:48;;;;;;;41.47;25.87;;;5.30;99.90;;;;;;6252304;28;20467;-65
2022/12/02 10:08:54;;;;;;;37.67;26.13;;;5.40;99.90;;;;;;6251716;28;20475;-66
2022/12/02 10:11:58;;;;;;;37.40;25.93;;;5.40;99.90;;;;;;6252207;28;20512;-64
2022/12/02 10:15:01;;;;;;;39.00;27.20;;;5.50;99.90;;;;;;6252358;28;20490;-65
2022/12/02 10:18:12;;;;;;;41.03;27.03;;;5.50;99.90;;;;;;6252283;28;20530;-63
2022/12/02 10:21:15;;;;;;;35.90;24.67;;;5.60;99.90;;;;;;6235199;28;20828;-63
2022/12/02 10:24:37;;;;;;;40.23;25.83;;;5.70;99.90;;;;;;6249170;28;20475;-63
2022/12/02 10:27:40;;;;;;;42.83;28.93;;;5.70;99.90;;;;;;6248991;28;20478;-63
2022/12/02 10:30:49;;;;;;;35.80;23.80;;;5.70;99.90;;;;;;6251008;28;20537;-62
2022/12/02 10:33:54;;;;;;;39.73;27.43;;;5.80;99.90;;;;;;6251205;28;20997;-62
2022/12/02 10:37:16;;;;;;;38.67;26.93;;;5.90;99.90;;;;;;6250924;28;20483;-62
2022/12/02 10:40:23;;;;;;;40.80;26.50;;;5.80;99.90;;;;;;6248533;28;20558;-61
2022/12/02 10:43:26;;;;;;;35.07;25.40;;;5.90;99.90;;;;;;6251337;28;20482;-61
2022/12/02 10:46:30;;;;;;;38.73;27.10;;;5.90;99.90;;;;;;6250991;28;20479;-62
2022/12/02 10:49:34;;;;;;;41.10;28.63;;;5.90;99.90;;;;;;6250540;28;20532;-63
2022/12/02 10:52:45;;;;;;;38.90;26.50;;;5.80;99.90;;;;;;6250866;28;20594;-62
2022/12/02 10:55:49;;;;;;;41.67;26.60;;;5.70;99.90;;;;;;6250307;28;20934;-63
2022/12/02 10:58:54;;;;;;;37.67;26.07;;;5.80;99.90;;;;;;6250767;28;20837;-62
2022/12/02 11:01:58;;;;;;;34.70;26.03;;;5.70;99.90;;;;;;6250773;28;20818;-61
2022/12/02 11:05:13;;;;;;;39.13;26.77;;;5.70;99.90;;;;;;6241709;28;20577;-61
2022/12/02 11:08:20;;;;;;;40.30;26.30;;;5.70;99.90;;;;;;6244343;28;20436;-64
2022/12/02 11:11:40;;;;;;;40.90;26.00;;;5.70;99.90;;;;;;6250005;28;21014;-63
2022/12/02 11:15:01;;;;;;;40.10;28.53;;;5.70;99.90;;;;;;6250312;28;20977;-61
2022/12/02 11:18:06;;;;;;;40.83;27.00;;;5.50;99.90;;;;;;6250202;28;20483;-63
2022/12/02 11:21:38;;;;;;;45.30;29.90;;;5.40;99.90;;;;;;6250119;28;20777;-63
2022/12/02 11:24:41;;;;;;;39.10;26.87;;;5.40;99.90;;;;;;6261100;28;20463;-63
2022/12/02 11:28:14;;;;;;;38.37;26.10;;;5.50;99.90;;;;;;6249188;28;20471;-63
2022/12/02 11:31:25;;;;;;;41.33;27.50;;;5.50;99.90;;;;;;6242091;28;20478;-63
2022/12/02 11:34:45;;;;;;;36.93;26.13;;;5.50;99.90;;;;;;6249834;28;20471;-63
2022/12/02 11:38:24;;;;;;;36.37;26.10;;;5.60;99.90;;;;;;6249226;28;20517;-62
2022/12/02 11:41:29;;;;;;;39.00;27.10;;;5.70;99.90;;;;;;6249677;28;20482;-63
2022/12/02 11:44:34;;;;;;;37.00;26.27;;;5.70;99.90;;;;;;6249297;28;20474;-63
2022/12/02 11:47:39;;;;;;;38.77;25.40;;;5.70;99.90;;;;;;6249057;28;20462;-63
2022/12/02 11:50:42;;;;;;;37.97;25.83;;;5.70;99.90;;;;;;6248044;28;20467;-62
2022/12/02 11:53:51;;;;;;;37.53;26.33;;;5.70;99.90;;;;;;6237625;28;20471;-62
2022/12/02 11:56:54;;;;;;;42.63;28.17;;;5.70;99.90;;;;;;6229163;28;20475;-61
2022/12/02 11:59:59;;;;;;;39.17;26.43;;;5.70;99.90;;;;;;6225096;28;20479;-62
2022/12/02 12:03:20;;;;;;;36.27;27.17;;;5.70;99.90;;;;;;6225613;28;20472;-64
2022/12/02 12:06:25;;;;;;;44.07;27.83;;;5.80;99.90;;;;;;6240143;28;20483;-65
2022/12/02 12:09:28;;;;;;;38.77;27.73;;;6.00;99.90;;;;;;6249060;28;20479;-63
2022/12/02 12:12:31;;;;;;;37.97;25.03;;;6.00;99.90;;;;;;6248932;28;20464;-62
2022/12/02 12:15:58;;;;;;;39.03;24.70;;;6.00;99.90;;;;;;6249037;28;20494;-62
2022/12/02 12:19:02;;;;;;;33.40;24.47;;;5.90;99.90;;;;;;6244821;28;20495;-64
2022/12/02 12:22:24;;;;;;;40.47;27.17;;;6.00;99.90;;;;;;6249988;28;20468;-63
2022/12/02 12:25:32;;;;;;;34.80;25.07;;;5.80;99.90;;;;;;6274213;28;20477;-62
2022/12/02 12:28:36;;;;;;;34.97;24.87;;;5.80;99.90;;;;;;6274034;28;20466;-62
2022/12/02 12:31:41;;;;;;;37.37;24.30;;;5.90;99.90;;;;;;6277164;28;20464;-63
2022/12/02 12:34:44;;;;;;;34.27;26.27;;;6.00;99.90;;;;;;6274138;28;20959;-61
2022/12/02 12:37:48;;;;;;;38.30;26.07;;;6.00;99.90;;;;;;6273692;28;20577;-61
2022/12/02 12:40:51;;;;;;;39.17;26.77;;;6.00;99.90;;;;;;6273582;28;20483;-64
2022/12/02 12:43:54;;;;;;;38.30;27.90;;;5.90;99.90;;;;;;6261114;28;20813;-61
2022/12/02 12:46:59;;;;;;;36.43;25.30;;;5.90;99.90;;;;;;6245239;28;20475;-61
2022/12/02 12:50:02;;;;;;;36.63;24.70;;;5.80;99.90;;;;;;6248066;28;20494;-61
2022/12/02 12:53:06;;;;;;;34.57;22.57;;;5.80;99.90;;;;;;6248620;28;20478;-63
2022/12/02 12:56:09;;;;;;;33.93;22.60;;;5.80;99.90;;;;;;6248477;28;20463;-61
2022/12/02 12:59:12;;;;;;;35.47;23.57;;;5.70;99.90;;;;;;6248300;28;20459;-61
2022/12/02 13:02:16;;;;;;;36.77;23.30;;;5.60;99.90;;;;;;6248681;28;20544;-61
2022/12/02 13:05:20;;;;;;;33.40;24.10;;;5.70;99.90;;;;;;6244294;28;20451;-61
2022/12/02 13:08:23;;;;;;;34.00;22.70;;;5.60;99.90;;;;;;6228083;28;20931;-61
2022/12/02 13:11:26;;;;;;;32.33;23.53;;;5.60;99.90;;;;;;6234848;28;20483;-61
2022/12/02 13:14:29;;;;;;;37.80;24.93;;;5.50;99.90;;;;;;6236248;28;20823;-61
2022/12/02 13:17:34;;;;;;;29.13;21.60;;;5.50;99.90;;;;;;6233842;28;20471;-61
2022/12/02 13:20:37;;;;;;;36.47;24.37;;;5.50;99.90;;;;;;6227870;28;20484;-61
2022/12/02 13:23:41;;;;;;;35.47;25.27;;;5.60;99.90;;;;;;6239009;28;20954;-61
2022/12/02 13:26:44;;;;;;;34.27;23.73;;;5.60;99.90;;;;;;6247438;28;20490;-61
2022/12/02 13:29:47;;;;;;;32.23;23.50;;;5.60;99.90;;;;;;6249363;28;20475;-61
2022/12/02 13:32:52;;;;;;;35.63;23.97;;;5.50;99.90;;;;;;6253073;28;20482;-61
2022/12/02 13:35:55;;;;;;;33.53;23.70;;;5.50;99.90;;;;;;6252688;28;20490;-60
2022/12/02 13:38:58;;;;;;;37.23;24.57;;;5.40;99.90;;;;;;6252607;28;20565;-62
2022/12/02 13:42:08;;;;;;;37.80;28.20;;;5.30;99.90;;;;;;6252569;28;20922;-61
2022/12/02 13:45:12;;;;;;;41.17;26.17;;;5.00;99.90;;;;;;6252327;28;20942;-62
2022/12/02 13:48:16;;;;;;;43.37;25.97;;;4.90;99.90;;;;;;6252222;28;20482;-63
2022/12/02 13:51:19;;;;;;;40.17;28.80;;;5.00;99.90;;;;;;6252343;28;20471;-63
2022/12/02 13:54:23;;;;;;;43.80;28.43;;;5.10;99.90;;;;;;6252140;28;20533;-64
2022/12/02 13:57:26;;;;;;;35.87;26.47;;;5.20;99.90;;;;;;6252337;28;20478;-65
2022/12/02 14:00:29;;;;;;;43.80;27.20;;;5.20;99.90;;;;;;6251671;28;20971;-62
2022/12/02 14:03:34;;;;;;;36.87;26.50;;;5.40;99.90;;;;;;6252142;28;20471;-64
2022/12/02 14:06:37;;;;;;;42.60;25.90;;;5.50;99.90;;;;;;6251743;28;20850;-62
2022/12/02 14:09:40;;;;;;;44.87;30.10;;;5.50;99.90;;;;;;6251860;28;20494;-61
2022/12/02 14:12:43;;;;;;;42.13;27.77;;;5.40;99.90;;;;;;6252616;28;20529;-62
2022/12/02 14:15:46;;;;;;;52.27;32.80;;;5.10;99.90;;;;;;6253709;28;20486;-62
2022/12/02 14:18:51;;;;;;;47.60;28.27;;;5.10;99.90;;;;;;6251474;28;20477;-62
2022/12/02 14:21:59;;;;;;;42.30;28.43;;;5.20;99.90;;;;;;6252316;28;20519;-63
2022/12/02 14:25:03;;;;;;;38.07;25.30;;;5.20;99.90;;;;;;6276548;28;20475;-64
2022/12/02 14:28:06;;;;;;;41.97;27.00;;;5.20;99.90;;;;;;6276724;28;20508;-62
2022/12/02 14:31:09;;;;;;;37.87;24.63;;;5.30;99.90;;;;;;6276337;28;20467;-65
2022/12/02 14:34:27;;;;;;;38.70;28.43;;;5.40;99.90;;;;;;6277902;28;20471;-64
2022/12/02 14:37:30;;;;;;;36.83;25.37;;;5.40;99.90;;;;;;6286072;28;20826;-62
2022/12/02 14:40:33;;;;;;;36.90;25.53;;;5.30;99.90;;;;;;6281253;28;20497;-64
2022/12/02 14:43:37;;;;;;;39.43;26.47;;;5.30;99.90;;;;;;6280685;28;20474;-62
2022/12/02 14:46:45;;;;;;;41.60;27.77;;;5.30;99.90;;;;;;6276901;28;20481;-62
2022/12/02 14:49:50;;;;;;;49.20;31.93;;;5.20;99.90;;;;;;6276246;28;20475;-62
2022/12/02 14:52:54;;;;;;;40.27;28.33;;;5.30;99.90;;;;;;6277153;28;20543;-64
2022/12/02 14:55:57;;;;;;;44.00;28.80;;;5.40;99.90;;;;;;6268453;28;20990;-63
2022/12/02 14:59:00;;;;;;;38.20;26.17;;;5.40;99.90;;;;;;6250713;28;20483;-64
2022/12/02 15:02:03;;;;;;;41.00;28.40;;;5.40;99.90;;;;;;6251043;28;20480;-64
2022/12/02 15:05:08;;;;;;;41.03;25.87;;;5.40;99.90;;;;;;6250603;28;20487;-65
2022/12/02 15:08:16;;;;;;;42.73;27.43;;;5.40;99.90;;;;;;6250983;28;20511;-64
2022/12/02 15:11:19;;;;;;;40.87;28.20;;;5.40;99.90;;;;;;6250168;28;20463;-64
2022/12/02 15:14:23;;;;;;;38.30;25.13;;;5.30;99.90;;;;;;6250485;28;20443;-63
2022/12/02 15:17:26;;;;;;;42.63;27.90;;;5.30;99.90;;;;;;6241554;28;20750;-63
2022/12/02 15:20:30;;;;;;;36.93;23.93;;;5.30;99.90;;;;;;6250448;28;20483;-63
2022/12/02 15:23:33;;;;;;;42.03;25.67;;;5.20;99.90;;;;;;6263559;28;20462;-62
2022/12/02 15:26:37;;;;;;;39.30;25.97;;;5.10;99.90;;;;;;6275218;28;20466;-62
2022/12/02 15:29:40;;;;;;;41.40;26.40;;;5.00;99.90;;;;;;6274891;28;20481;-62
2022/12/02 15:32:44;;;;;;;45.70;26.70;;;4.90;99.90;;;;;;6274875;28;20784;-63
2022/12/02 15:35:49;;;;;;;47.27;27.40;;;4.70;99.90;;;;;;6274867;28;20474;-62
2022/12/02 15:38:52;;;;;;;44.23;26.67;;;4.60;99.90;;;;;;6274471;28;20478;-63
2022/12/02 15:41:56;;;;;;;42.07;27.20;;;4.60;99.90;;;;;;6274771;28;20485;-62
2022/12/02 15:45:00;;;;;;;42.17;26.73;;;4.60;99.90;;;;;;6274394;28;20470;-67
2022/12/02 15:48:03;;;;;;;39.03;27.10;;;4.70;99.90;;;;;;6274574;28;20822;-65
2022/12/02 15:51:09;;;;;;;44.60;28.40;;;4.70;99.90;;;;;;6274301;28;20478;-65
2022/12/02 15:54:13;;;;;;;48.50;29.67;;;4.60;99.90;;;;;;6274157;28;20628;-65
2022/12/02 15:57:17;;;;;;;44.83;29.27;;;4.40;99.90;;;;;;6256535;28;20471;-67